Holdingford, Minnesota
Current Conditions -  °F | °C
As of 8:37 AM on Thursday 23 Oct 2014 (Local Time) from KLXL Reporting Station
Haze Haze  
Wind Chill: 50°   Ceiling: 300
Heat Index: 50°   Visibility: 1mi
Dew Point: 48°   Wind: 3mph
Humidity: 94%   Direction: 190°S
Pressure: 29.97"   Gusts: NA
Location:  45.73°N, 94.47°W
Report Text: KLXL 231337Z AUTO 19003KT 1SM BR OVC003 10/09 A2997 RMK AO2
Loading
Personal Weather Stations






























Interactive Weather Map
Tropical Storm Tracking
New forecast layout! Learn more

10-Day Weather Forecast

Advertisements
Track Severe Weather on mobile